createdAt,value
2022-08-02T00:00:09.595Z,100.00
2022-08-02T00:02:36.421Z,100.00
2022-08-02T00:05:03.121Z,100.00
2022-08-02T00:07:29.654Z,100.00
2022-08-02T00:09:56.257Z,100.00
2022-08-02T00:12:22.980Z,100.00
2022-08-02T00:14:49.611Z,100.00
2022-08-02T00:17:16.142Z,100.00
2022-08-02T00:19:42.764Z,100.00
2022-08-02T00:22:09.516Z,100.00
2022-08-02T00:24:36.351Z,100.00
2022-08-02T00:27:09.588Z,100.00
2022-08-02T00:29:42.717Z,100.00
2022-08-02T00:32:19.875Z,100.00
2022-08-02T00:34:46.480Z,100.00
2022-08-02T00:37:12.991Z,100.00
2022-08-02T00:39:39.660Z,100.00
2022-08-02T00:42:06.384Z,100.00
2022-08-02T00:44:32.958Z,100.00
2022-08-02T00:46:59.679Z,100.00
2022-08-02T00:49:26.374Z,100.00
2022-08-02T00:51:53.073Z,100.00
2022-08-02T00:54:20.695Z,100.00
2022-08-02T00:56:49.654Z,100.00
2022-08-02T00:59:18.295Z,100.00
2022-08-02T01:01:56.160Z,100.00
2022-08-02T01:04:30.107Z,100.00
2022-08-02T01:06:58.609Z,100.00
2022-08-02T01:09:25.514Z,100.00
2022-08-02T01:11:52.041Z,100.00
2022-08-02T01:14:19.035Z,100.00
2022-08-02T01:16:52.840Z,100.00
2022-08-02T01:19:51.732Z,100.00
2022-08-02T01:23:01.468Z,100.00
2022-08-02T01:25:52.694Z,100.00
2022-08-02T01:28:30.294Z,100.00
2022-08-02T01:31:04.997Z,100.00
2022-08-02T01:33:36.910Z,100.00
2022-08-02T01:36:05.540Z,100.00
2022-08-02T01:38:41.093Z,100.00
2022-08-02T01:41:10.188Z,100.00
2022-08-02T01:43:38.459Z,100.00
2022-08-02T01:46:05.756Z,100.00
2022-08-02T01:48:34.637Z,100.00
2022-08-02T01:51:01.439Z,100.00
2022-08-02T01:53:29.444Z,100.00
2022-08-02T01:55:59.167Z,100.00
2022-08-02T01:58:28.355Z,100.00
2022-08-02T02:00:57.014Z,100.00
2022-08-02T02:03:24.974Z,100.00
2022-08-02T02:05:54.766Z,100.00
2022-08-02T02:08:38.263Z,100.00
2022-08-02T02:12:13.196Z,100.00
2022-08-02T02:13:53.153Z,100.00
2022-08-02T02:16:20.024Z,100.00
2022-08-02T02:18:47.197Z,100.00
2022-08-02T02:21:14.895Z,100.00
2022-08-02T02:23:43.535Z,100.00
2022-08-02T02:26:11.903Z,100.00
2022-08-02T02:28:40.135Z,100.00
2022-08-02T02:31:10.032Z,100.00
2022-08-02T02:33:40.880Z,100.00
2022-08-02T02:36:09.458Z,100.00
2022-08-02T02:38:36.452Z,100.00
2022-08-02T02:41:04.491Z,100.00
2022-08-02T02:43:32.870Z,100.00
2022-08-02T02:46:00.766Z,100.00
2022-08-02T02:48:27.921Z,100.00
2022-08-02T02:50:54.674Z,100.00
2022-08-02T02:53:22.568Z,100.00
2022-08-02T02:56:02.205Z,100.00
2022-08-02T02:58:30.302Z,100.00
2022-08-02T03:01:15.540Z,100.00
2022-08-02T03:03:44.133Z,100.00
2022-08-02T03:06:15.648Z,100.00
2022-08-02T03:08:42.809Z,100.00
2022-08-02T03:11:10.165Z,100.00
2022-08-02T03:13:37.770Z,100.00
2022-08-02T03:16:04.550Z,100.00
2022-08-02T03:18:36.522Z,100.00
2022-08-02T03:21:05.380Z,100.00
2022-08-02T03:23:32.801Z,100.00
2022-08-02T03:25:59.443Z,100.00
2022-08-02T03:28:26.069Z,100.00
2022-08-02T03:30:52.846Z,100.00
2022-08-02T03:33:20.595Z,100.00
2022-08-02T03:35:48.610Z,100.00
2022-08-02T03:38:16.555Z,100.00
2022-08-02T03:40:43.455Z,100.00
2022-08-02T03:43:10.440Z,100.00
2022-08-02T03:45:42.861Z,100.00
2022-08-02T03:48:34.896Z,100.00
2022-08-02T03:50:58.145Z,100.00
2022-08-02T03:53:25.056Z,100.00
2022-08-02T03:55:51.906Z,100.00
2022-08-02T03:58:23.142Z,100.00
2022-08-02T04:00:50.388Z,100.00
2022-08-02T04:03:19.941Z,100.00
2022-08-02T04:06:03.409Z,100.00
2022-08-02T04:08:36.891Z,100.00
2022-08-02T04:11:23.196Z,100.00
2022-08-02T04:13:49.944Z,100.00
2022-08-02T04:16:21.473Z,100.00
2022-08-02T04:18:54.670Z,100.00
2022-08-02T04:21:22.259Z,100.00
2022-08-02T04:23:50.502Z,100.00
2022-08-02T04:26:18.820Z,100.00
2022-08-02T04:28:54.489Z,100.00
2022-08-02T04:31:21.470Z,100.00
2022-08-02T04:33:48.371Z,100.00
2022-08-02T04:36:15.196Z,100.00
2022-08-02T04:38:57.719Z,100.00
2022-08-02T04:41:36.985Z,100.00
2022-08-02T04:44:07.984Z,100.00
2022-08-02T04:46:36.226Z,100.00
2022-08-02T04:49:03.139Z,100.00
2022-08-02T04:51:38.367Z,100.00
2022-08-02T04:54:09.280Z,100.00
2022-08-02T04:56:36.843Z,100.00
2022-08-02T04:59:03.412Z,100.00
2022-08-02T05:01:30.187Z,100.00
2022-08-02T05:03:56.751Z,100.00
2022-08-02T05:06:23.315Z,100.00
2022-08-02T05:08:52.778Z,100.00
2022-08-02T05:11:21.124Z,100.00
2022-08-02T05:13:58.557Z,100.00
2022-08-02T05:16:30.976Z,100.00
2022-08-02T05:18:59.668Z,100.00
2022-08-02T05:21:26.334Z,100.00
2022-08-02T05:23:52.937Z,100.00
2022-08-02T05:26:19.600Z,100.00
2022-08-02T05:28:46.147Z,100.00
2022-08-02T05:31:13.412Z,100.00
2022-08-02T05:33:40.633Z,100.00
2022-08-02T05:36:09.307Z,100.00
2022-08-02T05:38:36.946Z,100.00
2022-08-02T05:41:04.227Z,100.00
2022-08-02T05:43:31.112Z,100.00
2022-08-02T05:45:57.823Z,100.00
2022-08-02T05:48:30.893Z,100.00
2022-08-02T05:51:06.348Z,100.00
2022-08-02T05:53:59.237Z,100.00
2022-08-02T05:56:33.746Z,100.00
2022-08-02T05:59:05.001Z,100.00
2022-08-02T06:01:36.898Z,100.00
2022-08-02T06:04:07.172Z,100.00
2022-08-02T06:06:34.652Z,100.00
2022-08-02T06:09:07.533Z,100.00
2022-08-02T06:11:40.026Z,100.00
2022-08-02T06:14:07.840Z,100.00
2022-08-02T06:16:42.222Z,100.00
2022-08-02T06:19:09.836Z,100.00
2022-08-02T06:22:33.146Z,100.00
2022-08-02T06:24:24.023Z,100.00
2022-08-02T06:26:55.265Z,100.00
2022-08-02T06:29:23.183Z,100.00
2022-08-02T06:31:51.597Z,100.00
2022-08-02T06:34:18.137Z,100.00
2022-08-02T06:37:15.242Z,100.00
2022-08-02T06:39:48.122Z,100.00
2022-08-02T06:42:25.536Z,100.00
2022-08-02T06:44:57.402Z,100.00
2022-08-02T06:47:24.846Z,100.00
2022-08-02T06:49:54.139Z,100.00
2022-08-02T06:52:28.998Z,100.00
2022-08-02T06:55:00.009Z,100.00
2022-08-02T06:57:27.654Z,100.00
2022-08-02T06:59:54.251Z,100.00
2022-08-02T07:02:20.923Z,100.00
2022-08-02T07:04:47.499Z,100.00
2022-08-02T07:07:14.070Z,100.00
2022-08-02T07:09:56.733Z,100.00
2022-08-02T07:12:28.940Z,100.00
2022-08-02T07:14:55.505Z,100.00
2022-08-02T07:17:22.078Z,100.00
2022-08-02T07:19:48.636Z,100.00
2022-08-02T07:22:15.506Z,100.00
2022-08-02T07:24:42.405Z,100.00
2022-08-02T07:27:11.995Z,100.00
2022-08-02T07:29:46.415Z,100.00
2022-08-02T07:32:17.722Z,100.00
2022-08-02T07:34:52.577Z,100.00
2022-08-02T07:37:35.380Z,100.00
2022-08-02T07:40:15.299Z,100.00
2022-08-02T07:42:52.315Z,100.00
2022-08-02T07:45:20.287Z,100.00
2022-08-02T07:47:47.070Z,100.00
2022-08-02T07:50:15.125Z,100.00
2022-08-02T07:52:42.684Z,100.00
2022-08-02T07:55:10.292Z,100.00
2022-08-02T07:57:41.252Z,100.00
2022-08-02T08:00:11.076Z,100.00
2022-08-02T08:02:38.257Z,100.00
2022-08-02T08:05:05.146Z,100.00
2022-08-02T08:07:31.660Z,100.00
2022-08-02T08:09:59.795Z,100.00
2022-08-02T08:12:26.744Z,100.00
2022-08-02T08:14:53.867Z,100.00
2022-08-02T08:17:20.511Z,100.00
2022-08-02T08:19:51.731Z,100.00
2022-08-02T08:22:21.712Z,100.00
2022-08-02T08:24:48.928Z,100.00
2022-08-02T08:27:16.378Z,100.00
2022-08-02T08:29:43.679Z,100.00
2022-08-02T08:32:15.885Z,100.00
2022-08-02T08:34:44.085Z,100.00
2022-08-02T08:37:17.673Z,100.00
2022-08-02T08:39:56.275Z,100.00
2022-08-02T08:42:27.004Z,100.00
2022-08-02T08:44:56.428Z,100.00
2022-08-02T08:47:24.260Z,100.00
2022-08-02T08:49:53.359Z,100.00
2022-08-02T08:52:22.799Z,100.00
2022-08-02T08:54:50.054Z,100.00
2022-08-02T08:57:18.151Z,100.00
2022-08-02T08:59:45.993Z,100.00
2022-08-02T09:02:16.882Z,100.00
2022-08-02T09:04:54.798Z,100.00
2022-08-02T09:07:22.866Z,100.00
2022-08-02T09:09:49.396Z,97.65
2022-08-02T09:12:17.639Z,71.50
2022-08-02T09:14:46.476Z,70.20
2022-08-02T09:17:17.392Z,68.85
2022-08-02T09:19:45.660Z,70.38
2022-08-02T09:22:13.420Z,70.11
2022-08-02T09:24:48.927Z,71.83
2022-08-02T09:27:20.425Z,69.48
2022-08-02T09:30:12.345Z,69.50
2022-08-02T09:32:48.051Z,68.63
2022-08-02T09:36:05.865Z,65.94
2022-08-02T09:38:18.632Z,67.85
2022-08-02T09:40:45.339Z,67.36
2022-08-02T09:43:12.473Z,70.42
2022-08-02T09:45:39.141Z,67.08
2022-08-02T09:48:09.651Z,67.43
2022-08-02T09:50:40.018Z,66.07
2022-08-02T09:53:12.924Z,67.10
2022-08-02T09:55:40.503Z,69.26
2022-08-02T09:58:20.438Z,66.74
2022-08-02T10:00:59.073Z,67.93
2022-08-02T10:03:28.101Z,68.21
2022-08-02T10:06:03.319Z,55.21
2022-08-02T10:08:33.084Z,52.23
2022-08-02T10:11:00.746Z,47.28
2022-08-02T10:13:32.579Z,41.72
2022-08-02T10:15:59.617Z,41.33
2022-08-02T10:18:38.755Z,40.42
2022-08-02T10:21:11.003Z,41.73
2022-08-02T10:23:39.521Z,43.41
2022-08-02T10:26:06.940Z,40.76
2022-08-02T10:28:34.064Z,39.47
2022-08-02T10:31:04.737Z,35.68
2022-08-02T10:33:33.260Z,34.54
2022-08-02T10:36:04.681Z,33.47
2022-08-02T10:38:35.308Z,30.33
2022-08-02T10:41:01.927Z,32.10
2022-08-02T10:43:31.472Z,34.16
2022-08-02T10:46:38.236Z,34.13
2022-08-02T10:49:29.742Z,36.77
2022-08-02T10:52:00.394Z,38.89
2022-08-02T10:54:35.956Z,37.23
2022-08-02T10:57:03.301Z,36.72
2022-08-02T10:59:30.861Z,34.24
2022-08-02T11:02:03.962Z,32.00
2022-08-02T11:04:36.382Z,30.40
2022-08-02T11:07:19.133Z,31.07
2022-08-02T11:09:47.482Z,30.45
2022-08-02T11:12:17.022Z,29.93
2022-08-02T11:14:45.570Z,28.39
2022-08-02T11:17:18.999Z,27.90
2022-08-02T11:20:13.519Z,27.59
2022-08-02T11:22:41.012Z,27.74
2022-08-02T11:25:23.097Z,25.88
2022-08-02T11:27:57.697Z,23.98
2022-08-02T11:30:26.618Z,23.02
2022-08-02T11:32:58.227Z,22.84
2022-08-02T11:35:35.451Z,22.80
2022-08-02T11:38:20.919Z,23.74
2022-08-02T11:40:48.855Z,23.44
2022-08-02T11:43:23.724Z,24.03
2022-08-02T11:45:52.391Z,24.75
2022-08-02T11:48:36.162Z,26.81
2022-08-02T11:51:05.002Z,26.17
2022-08-02T11:53:35.079Z,27.30
2022-08-02T11:56:01.536Z,27.36
2022-08-02T11:58:28.084Z,26.35
2022-08-02T12:00:54.718Z,24.74
2022-08-02T12:03:21.306Z,25.83
2022-08-02T12:06:04.615Z,24.05
2022-08-02T12:08:33.936Z,23.60
2022-08-02T12:11:02.295Z,22.96
2022-08-02T12:13:29.268Z,21.71
2022-08-02T12:16:15.775Z,21.56
2022-08-02T12:19:07.389Z,21.28
2022-08-02T12:21:34.144Z,21.57
2022-08-02T12:24:01.361Z,21.55
2022-08-02T12:26:29.728Z,23.26
2022-08-02T12:28:58.620Z,22.38
2022-08-02T12:31:57.215Z,23.07
2022-08-02T12:34:32.060Z,23.53
2022-08-02T12:36:59.024Z,25.30
2022-08-02T12:39:36.521Z,27.29
2022-08-02T12:42:03.964Z,27.79
2022-08-02T12:44:30.521Z,26.71
2022-08-02T12:47:00.809Z,25.62
2022-08-02T12:49:30.989Z,25.82
2022-08-02T12:52:02.248Z,24.71
2022-08-02T12:54:40.431Z,26.00
2022-08-02T12:57:14.625Z,25.54
2022-08-02T12:59:42.549Z,25.29
2022-08-02T13:02:12.590Z,25.88
2022-08-02T13:04:39.750Z,25.13
2022-08-02T13:07:06.587Z,24.92
2022-08-02T13:09:41.538Z,24.19
2022-08-02T13:12:08.900Z,24.48
2022-08-02T13:14:39.924Z,23.64
2022-08-02T13:17:12.601Z,26.04
2022-08-02T13:19:39.124Z,24.92
2022-08-02T13:22:06.112Z,27.03
2022-08-02T13:24:39.874Z,28.76
2022-08-02T13:27:21.585Z,30.71
2022-08-02T13:29:49.509Z,31.22
2022-08-02T13:32:16.802Z,31.73
2022-08-02T13:34:43.669Z,31.86
2022-08-02T13:37:10.515Z,30.19
2022-08-02T13:39:37.103Z,30.13
2022-08-02T13:42:03.848Z,29.41
2022-08-02T13:44:32.790Z,30.09
2022-08-02T13:46:59.407Z,31.80
2022-08-02T13:49:49.793Z,32.97
2022-08-02T13:52:13.003Z,32.93
2022-08-02T13:54:39.716Z,34.97
2022-08-02T13:57:06.315Z,32.21
2022-08-02T13:59:58.515Z,32.70
2022-08-02T14:02:19.570Z,32.12
2022-08-02T14:04:46.191Z,32.83
2022-08-02T14:07:12.982Z,33.50
2022-08-02T14:09:40.449Z,32.75
2022-08-02T14:12:09.712Z,32.68
2022-08-02T14:14:36.809Z,33.91
2022-08-02T14:17:03.547Z,34.44
2022-08-02T14:19:30.256Z,34.67
2022-08-02T14:22:10.981Z,34.63
2022-08-02T14:24:39.394Z,35.21
2022-08-02T14:27:05.946Z,35.47
2022-08-02T14:29:32.470Z,35.51
2022-08-02T14:31:59.068Z,35.80
2022-08-02T14:34:25.627Z,36.10
2022-08-02T14:36:54.138Z,36.26
2022-08-02T14:39:21.211Z,37.30
2022-08-02T14:41:59.701Z,37.14
2022-08-02T14:44:27.787Z,37.32
2022-08-02T14:46:54.620Z,37.24
2022-08-02T14:49:25.665Z,38.61
2022-08-02T14:51:56.050Z,38.94
2022-08-02T14:54:28.245Z,38.25
2022-08-02T14:57:03.407Z,37.92
2022-08-02T14:59:30.456Z,38.07
2022-08-02T15:01:57.458Z,37.60
2022-08-02T15:04:24.245Z,38.35
2022-08-02T15:06:50.962Z,37.88
2022-08-02T15:09:17.536Z,38.47
2022-08-02T15:11:47.753Z,38.64
2022-08-02T15:14:22.063Z,38.08
2022-08-02T15:16:58.866Z,38.18
2022-08-02T15:19:52.979Z,38.23
2022-08-02T15:22:16.188Z,38.07
2022-08-02T15:24:45.314Z,37.55
2022-08-02T15:27:14.089Z,39.51
2022-08-02T15:29:41.320Z,41.59
2022-08-02T15:32:08.080Z,40.15
2022-08-02T15:34:34.779Z,41.08
2022-08-02T15:37:01.362Z,42.83
2022-08-02T15:39:27.895Z,42.64
2022-08-02T15:41:54.446Z,43.34
2022-08-02T15:44:21.007Z,43.91
2022-08-02T15:46:47.556Z,43.94
2022-08-02T15:49:14.194Z,43.60
2022-08-02T15:51:40.755Z,42.07
2022-08-02T15:54:07.491Z,41.87
2022-08-02T15:56:34.008Z,41.12
2022-08-02T15:59:00.575Z,41.93
2022-08-02T16:01:37.176Z,42.85
2022-08-02T16:04:06.380Z,42.92
2022-08-02T16:06:33.348Z,44.88
2022-08-02T16:09:00.115Z,44.63
2022-08-02T16:11:27.419Z,43.72
2022-08-02T16:13:54.675Z,44.48
2022-08-02T16:16:32.121Z,44.87
2022-08-02T16:18:59.181Z,44.94
2022-08-02T16:21:26.234Z,45.88
2022-08-02T16:23:58.996Z,45.97
2022-08-02T16:26:29.488Z,44.70
2022-08-02T16:28:56.677Z,44.74
2022-08-02T16:31:23.898Z,45.89
2022-08-02T16:33:50.543Z,44.79
2022-08-02T16:36:23.571Z,45.06
2022-08-02T16:38:50.224Z,44.64
2022-08-02T16:41:16.928Z,45.13
2022-08-02T16:43:43.476Z,46.50
2022-08-02T16:46:10.287Z,46.38
2022-08-02T16:48:37.029Z,46.31
2022-08-02T16:51:03.670Z,47.02
2022-08-02T16:53:36.998Z,47.32
2022-08-02T16:56:05.119Z,47.32
2022-08-02T16:58:31.678Z,47.24
2022-08-02T17:00:58.260Z,47.41
2022-08-02T17:03:24.852Z,46.21
2022-08-02T17:06:11.390Z,46.96
2022-08-02T17:08:54.108Z,47.28
2022-08-02T17:11:20.897Z,48.10
2022-08-02T17:13:50.255Z,48.58
2022-08-02T17:16:20.446Z,48.81
2022-08-02T17:18:54.105Z,47.81
2022-08-02T17:21:21.131Z,48.04
2022-08-02T17:24:08.102Z,48.40
2022-08-02T17:26:35.651Z,48.18
2022-08-02T17:29:15.386Z,48.39
2022-08-02T17:32:04.742Z,48.12
2022-08-02T17:34:34.399Z,48.43
2022-08-02T17:37:00.931Z,49.31
2022-08-02T17:39:33.715Z,49.33
2022-08-02T17:42:01.248Z,49.17
2022-08-02T17:44:37.821Z,49.79
2022-08-02T17:47:11.895Z,49.72
2022-08-02T17:49:44.053Z,50.95
2022-08-02T17:52:50.139Z,51.19
2022-08-02T17:55:03.494Z,50.73
2022-08-02T17:57:55.224Z,52.12
2022-08-02T18:00:17.538Z,51.89
2022-08-02T18:02:44.070Z,52.13
2022-08-02T18:05:19.616Z,52.69
2022-08-02T18:07:52.027Z,53.11
2022-08-02T18:10:22.099Z,53.85
2022-08-02T18:12:49.765Z,53.87
2022-08-02T18:15:16.322Z,54.35
2022-08-02T18:17:46.667Z,54.05
2022-08-02T18:20:13.239Z,53.15
2022-08-02T18:22:43.082Z,54.29
2022-08-02T18:25:11.456Z,55.00
2022-08-02T18:27:57.952Z,55.36
2022-08-02T18:30:28.058Z,56.23
2022-08-02T18:33:56.985Z,56.67
2022-08-02T18:35:42.648Z,56.82
2022-08-02T18:38:10.983Z,57.02
2022-08-02T18:40:38.627Z,57.26
2022-08-02T18:43:07.234Z,57.73
2022-08-02T18:45:42.041Z,58.74
2022-08-02T18:48:22.065Z,58.69
2022-08-02T18:50:48.762Z,59.07
2022-08-02T18:53:28.264Z,59.33
2022-08-02T18:56:04.683Z,61.11
2022-08-02T18:58:31.615Z,62.67
2022-08-02T19:00:59.746Z,66.00
2022-08-02T19:03:31.834Z,68.16
2022-08-02T19:06:04.087Z,69.57
2022-08-02T19:08:34.838Z,70.75
2022-08-02T19:11:02.814Z,71.89
2022-08-02T19:13:29.520Z,73.08
2022-08-02T19:15:56.205Z,73.66
2022-08-02T19:18:26.763Z,74.68
2022-08-02T19:20:56.171Z,76.01
2022-08-02T19:23:24.681Z,76.95
2022-08-02T19:25:54.786Z,79.16
2022-08-02T19:28:25.775Z,80.08
2022-08-02T19:30:53.800Z,80.86
2022-08-02T19:33:54.544Z,81.59
2022-08-02T19:36:07.201Z,83.70
2022-08-02T19:38:33.745Z,84.70
2022-08-02T19:41:01.774Z,86.81
2022-08-02T19:44:24.048Z,88.19
2022-08-02T19:46:15.920Z,90.17
2022-08-02T19:48:42.847Z,91.41
2022-08-02T19:51:12.992Z,92.80
2022-08-02T19:53:48.004Z,95.21
2022-08-02T19:56:20.615Z,96.91
2022-08-02T19:58:51.182Z,98.35
2022-08-02T20:01:21.898Z,100.00
2022-08-02T20:03:53.064Z,100.00
2022-08-02T20:06:20.297Z,100.00
2022-08-02T20:08:57.106Z,100.00
2022-08-02T20:11:25.669Z,100.00
2022-08-02T20:13:53.445Z,100.00
2022-08-02T20:16:21.091Z,100.00
2022-08-02T20:18:55.147Z,100.00
2022-08-02T20:21:36.577Z,100.00
2022-08-02T20:24:07.676Z,100.00
2022-08-02T20:26:35.335Z,100.00
2022-08-02T20:29:03.774Z,100.00
2022-08-02T20:31:30.626Z,100.00
2022-08-02T20:33:57.523Z,100.00
2022-08-02T20:36:25.561Z,100.00
2022-08-02T20:38:52.258Z,100.00
2022-08-02T20:41:21.591Z,100.00
2022-08-02T20:43:48.896Z,100.00
2022-08-02T20:46:15.702Z,100.00
2022-08-02T20:48:42.350Z,100.00
2022-08-02T20:51:12.136Z,100.00
2022-08-02T20:53:56.369Z,100.00
2022-08-02T20:56:23.358Z,100.00
2022-08-02T20:58:52.123Z,100.00
2022-08-02T21:01:21.338Z,100.00
2022-08-02T21:03:58.366Z,100.00
2022-08-02T21:06:28.035Z,100.00
2022-08-02T21:08:55.420Z,100.00
2022-08-02T21:11:25.632Z,100.00
2022-08-02T21:14:06.538Z,100.00
2022-08-02T21:16:36.096Z,100.00
2022-08-02T21:19:03.001Z,100.00
2022-08-02T21:21:34.744Z,100.00
2022-08-02T21:24:01.701Z,100.00
2022-08-02T21:26:30.988Z,100.00
2022-08-02T21:29:01.018Z,100.00
2022-08-02T21:31:31.885Z,100.00
2022-08-02T21:34:00.466Z,100.00
2022-08-02T21:36:30.975Z,100.00
2022-08-02T21:38:58.221Z,100.00
2022-08-02T21:41:24.854Z,100.00
2022-08-02T21:44:07.230Z,100.00
2022-08-02T21:46:33.755Z,100.00
2022-08-02T21:49:01.790Z,100.00
2022-08-02T21:51:28.507Z,100.00
2022-08-02T21:54:18.026Z,100.00
2022-08-02T21:56:51.804Z,100.00
2022-08-02T21:59:25.782Z,100.00
2022-08-02T22:01:54.059Z,100.00
2022-08-02T22:04:21.665Z,100.00
2022-08-02T22:06:49.028Z,100.00
2022-08-02T22:09:43.069Z,100.00
2022-08-02T22:12:09.717Z,100.00
2022-08-02T22:14:39.383Z,100.00
2022-08-02T22:17:08.876Z,100.00
2022-08-02T22:19:40.184Z,100.00
2022-08-02T22:22:20.429Z,100.00
2022-08-02T22:24:46.974Z,100.00
2022-08-02T22:27:14.186Z,100.00
2022-08-02T22:29:40.719Z,100.00
2022-08-02T22:32:07.319Z,100.00
2022-08-02T22:34:51.304Z,100.00
2022-08-02T22:40:09.611Z,100.00
2022-08-02T22:42:36.644Z,100.00
2022-08-02T22:45:07.744Z,100.00
2022-08-02T22:47:38.769Z,100.00
2022-08-02T22:50:17.596Z,100.00
2022-08-02T22:52:50.133Z,100.00
2022-08-02T22:55:17.347Z,100.00
2022-08-02T22:57:56.721Z,100.00
2022-08-02T22:59:09.600Z,100.00
2022-08-02T23:00:24.951Z,100.00
2022-08-02T23:02:51.551Z,100.00
2022-08-02T23:05:18.146Z,100.00
2022-08-02T23:07:44.654Z,100.00
2022-08-02T23:10:11.185Z,100.00
2022-08-02T23:12:37.789Z,100.00
2022-08-02T23:15:04.689Z,100.00
2022-08-02T23:17:49.809Z,100.00
2022-08-02T23:20:19.639Z,100.00
2022-08-02T23:22:46.273Z,100.00
2022-08-02T23:25:12.879Z,100.00
2022-08-02T23:27:39.555Z,100.00
2022-08-02T23:30:17.395Z,100.00
2022-08-02T23:32:43.951Z,100.00
2022-08-02T23:35:16.519Z,100.00
2022-08-02T23:37:58.997Z,100.00
2022-08-02T23:40:39.843Z,100.00
2022-08-02T23:43:13.995Z,100.00
2022-08-02T23:45:43.009Z,100.00
2022-08-02T23:48:09.605Z,100.00
2022-08-02T23:50:36.206Z,100.00
2022-08-02T23:53:02.756Z,100.00
2022-08-02T23:55:29.420Z,100.00
2022-08-02T23:57:55.962Z,100.00
